Terminal Aerodrome Forecast
Issued by NWS Hastings, NE

Home | Current Version | Previous Version | Text Only | Print | Product List | Glossary On
Versions: 1 2 3 4 5 6 7 8 9 10 11 12 13 14 15 16 17 18 19
000
FTUS45 KGID 282335
TAFEAR
TAF
KEAR 282335Z 2900/2924 29010KT P6SM FEW060
     FM290200 VRB04KT P6SM FEW250
     FM291800 22005KT P6SM VCSH SCT250
     FM292200 17007KT P6SM VCSH SCT200
      AMD LTD TO CLD VIS AND WIND=

USA.gov is the U.S. government's official web portal to all federal, state and local government web resources and services.